createdAt,value
2022-09-15T00:02:17.433Z,54.50
2022-09-15T00:04:44.006Z,54.60
2022-09-15T00:07:10.485Z,54.50
2022-09-15T00:09:36.948Z,54.50
2022-09-15T00:12:03.446Z,54.50
2022-09-15T00:14:29.911Z,54.50
2022-09-15T00:16:56.462Z,54.40
2022-09-15T00:19:22.991Z,54.40
2022-09-15T00:21:49.492Z,54.40
2022-09-15T00:24:15.975Z,54.40
2022-09-15T00:26:42.490Z,54.40
2022-09-15T00:29:08.966Z,54.30
2022-09-15T00:31:35.469Z,54.30
2022-09-15T00:34:01.955Z,54.30
2022-09-15T00:36:28.437Z,54.30
2022-09-15T00:38:54.923Z,54.30
2022-09-15T00:41:21.388Z,54.30
2022-09-15T00:43:47.864Z,54.40
2022-09-15T00:46:14.342Z,54.50
2022-09-15T00:48:40.843Z,54.50
2022-09-15T00:51:07.314Z,54.40
2022-09-15T00:53:33.794Z,54.40
2022-09-15T00:56:00.266Z,54.50
2022-09-15T00:58:26.734Z,54.40
2022-09-15T01:00:53.252Z,54.50
2022-09-15T01:03:19.736Z,54.40
2022-09-15T01:05:46.214Z,54.40
2022-09-15T01:08:12.699Z,54.30
2022-09-15T01:10:39.178Z,54.30
2022-09-15T01:13:05.660Z,54.30
2022-09-15T01:15:32.188Z,54.40
2022-09-15T01:17:58.667Z,54.40
2022-09-15T01:20:25.158Z,54.50
2022-09-15T01:22:51.621Z,54.50
2022-09-15T01:25:18.078Z,54.30
2022-09-15T01:27:44.531Z,54.30
2022-09-15T01:30:11.000Z,54.30
2022-09-15T01:32:37.495Z,54.30
2022-09-15T01:35:03.974Z,54.30
2022-09-15T01:37:30.463Z,54.40
2022-09-15T01:39:57.019Z,54.30
2022-09-15T01:42:23.543Z,54.30
2022-09-15T01:44:50.021Z,54.30
2022-09-15T01:47:16.516Z,54.30
2022-09-15T01:49:42.995Z,54.30
2022-09-15T01:52:09.468Z,54.30
2022-09-15T01:54:35.931Z,54.20
2022-09-15T01:57:02.420Z,54.20
2022-09-15T01:59:28.903Z,54.10
2022-09-15T02:01:55.449Z,54.10
2022-09-15T02:04:21.973Z,54.20
2022-09-15T02:06:48.479Z,54.20
2022-09-15T02:09:14.962Z,54.20
2022-09-15T02:11:41.477Z,54.20
2022-09-15T02:14:07.959Z,54.30
2022-09-15T02:16:34.568Z,54.20
2022-09-15T02:19:01.097Z,54.30
2022-09-15T02:21:27.621Z,54.20
2022-09-15T02:23:54.090Z,54.10
2022-09-15T02:26:20.568Z,54.10
2022-09-15T02:28:47.041Z,54.20
2022-09-15T02:31:13.557Z,54.30
2022-09-15T02:33:40.082Z,54.10
2022-09-15T02:36:06.559Z,54.10
2022-09-15T02:38:33.040Z,54.20
2022-09-15T02:40:59.501Z,54.10
2022-09-15T02:43:25.964Z,54.10
2022-09-15T02:45:52.471Z,54.10
2022-09-15T02:48:18.984Z,54.20
2022-09-15T02:50:45.453Z,54.10
2022-09-15T02:53:11.924Z,54.10
2022-09-15T02:55:38.405Z,54.10
2022-09-15T02:58:04.877Z,54.10
2022-09-15T03:00:31.473Z,54.00
2022-09-15T03:02:58.018Z,54.10
2022-09-15T03:05:24.481Z,54.00
2022-09-15T03:07:50.960Z,54.00
2022-09-15T03:10:17.427Z,54.00
2022-09-15T03:12:43.933Z,54.00
2022-09-15T03:15:10.424Z,54.10
2022-09-15T03:17:36.891Z,54.00
2022-09-15T03:22:47.332Z,54.00
2022-09-15T03:25:13.812Z,54.00
2022-09-15T03:27:40.307Z,54.10
2022-09-15T03:30:06.770Z,54.20
2022-09-15T03:32:33.249Z,54.00
2022-09-15T03:34:59.706Z,54.00
2022-09-15T03:37:26.173Z,53.90
2022-09-15T03:39:52.743Z,53.90
2022-09-15T03:42:19.276Z,54.00
2022-09-15T03:44:45.741Z,54.00
2022-09-15T03:47:12.224Z,54.10
2022-09-15T03:49:38.698Z,54.10
2022-09-15T03:52:05.165Z,54.00
2022-09-15T03:54:31.628Z,54.20
2022-09-15T03:56:58.103Z,54.20
2022-09-15T03:59:24.573Z,54.20
2022-09-15T04:01:51.171Z,54.10
2022-09-15T04:04:17.687Z,54.10
2022-09-15T04:06:44.161Z,54.10
2022-09-15T04:09:10.631Z,54.20
2022-09-15T04:11:37.113Z,54.10
2022-09-15T04:14:03.599Z,54.00
2022-09-15T04:16:30.160Z,54.10
2022-09-15T04:18:56.718Z,54.10
2022-09-15T04:21:23.184Z,54.10
2022-09-15T04:23:49.648Z,54.10
2022-09-15T04:26:16.121Z,54.10
2022-09-15T04:28:42.603Z,54.10
2022-09-15T04:31:09.110Z,54.10
2022-09-15T04:33:35.596Z,54.10
2022-09-15T04:36:02.053Z,54.00
2022-09-15T04:38:28.519Z,54.10
2022-09-15T04:40:54.990Z,54.10
2022-09-15T04:43:21.467Z,54.10
2022-09-15T04:45:47.949Z,54.10
2022-09-15T04:48:14.431Z,54.10
2022-09-15T04:50:40.891Z,54.10
2022-09-15T04:53:07.346Z,54.00
2022-09-15T04:55:33.805Z,54.00
2022-09-15T04:58:00.294Z,54.10
2022-09-15T05:00:26.767Z,54.00
2022-09-15T05:02:53.256Z,54.00
2022-09-15T05:05:19.742Z,54.00
2022-09-15T05:07:46.239Z,54.10
2022-09-15T05:10:12.718Z,54.10
2022-09-15T05:12:39.224Z,54.10
2022-09-15T05:15:05.698Z,54.10
2022-09-15T05:17:32.190Z,54.10
2022-09-15T05:19:58.666Z,54.10
2022-09-15T05:22:25.306Z,54.10
2022-09-15T05:24:51.792Z,54.20
2022-09-15T05:27:18.265Z,54.10
2022-09-15T05:29:44.735Z,54.10
2022-09-15T05:32:11.194Z,54.20
2022-09-15T05:34:37.660Z,54.10
2022-09-15T05:37:04.133Z,54.20
2022-09-15T05:39:30.594Z,54.10
2022-09-15T05:41:57.069Z,54.10
2022-09-15T05:44:23.558Z,54.10
2022-09-15T05:46:50.097Z,54.00
2022-09-15T05:49:16.648Z,54.70
2022-09-15T05:51:43.107Z,54.20
2022-09-15T05:54:09.587Z,54.20
2022-09-15T05:56:36.061Z,54.10
2022-09-15T05:59:02.545Z,54.20
2022-09-15T06:01:29.082Z,54.10
2022-09-15T06:03:55.574Z,54.20
2022-09-15T06:06:22.069Z,54.10
2022-09-15T06:08:48.687Z,54.10
2022-09-15T06:11:15.907Z,54.10
2022-09-15T06:13:42.383Z,54.20
2022-09-15T06:16:08.908Z,54.10
2022-09-15T06:18:35.418Z,54.00
2022-09-15T06:21:01.878Z,54.20
2022-09-15T06:23:28.375Z,54.20
2022-09-15T06:25:54.835Z,54.30
2022-09-15T06:28:21.290Z,54.20
2022-09-15T06:30:47.756Z,54.30
2022-09-15T06:33:14.244Z,54.10
2022-09-15T06:35:40.735Z,54.30
2022-09-15T06:38:07.194Z,54.30
2022-09-15T06:40:33.729Z,54.20
2022-09-15T06:43:00.243Z,54.30
2022-09-15T06:45:26.748Z,54.20
2022-09-15T06:48:13.349Z,54.20
2022-09-15T06:50:39.691Z,54.10
2022-09-15T06:53:06.178Z,54.20
2022-09-15T06:55:32.666Z,54.20
2022-09-15T06:57:59.142Z,54.20
2022-09-15T07:00:25.615Z,54.10
2022-09-15T07:02:52.211Z,54.10
2022-09-15T07:05:18.767Z,54.10
2022-09-15T07:07:45.244Z,54.20
2022-09-15T07:10:11.720Z,54.30
2022-09-15T07:12:38.200Z,54.40
2022-09-15T07:15:04.696Z,54.40
2022-09-15T07:17:31.173Z,54.30
2022-09-15T07:19:57.639Z,54.40
2022-09-15T07:22:24.119Z,54.30
2022-09-15T07:24:50.610Z,54.40
2022-09-15T07:27:17.102Z,54.40
2022-09-15T07:29:43.569Z,54.30
2022-09-15T07:32:10.110Z,54.40
2022-09-15T07:34:36.633Z,54.50
2022-09-15T07:37:03.102Z,54.50
2022-09-15T07:39:29.583Z,54.60
2022-09-15T07:41:56.053Z,54.60
2022-09-15T07:44:22.537Z,54.70
2022-09-15T07:46:49.004Z,54.70
2022-09-15T07:49:15.478Z,54.70
2022-09-15T07:51:41.966Z,54.70
2022-09-15T07:54:08.465Z,54.60
2022-09-15T07:56:34.938Z,54.50
2022-09-15T07:59:01.424Z,54.60
2022-09-15T08:01:27.954Z,54.60
2022-09-15T08:03:54.690Z,54.60
2022-09-15T08:06:21.239Z,54.70
2022-09-15T08:08:47.743Z,54.60
2022-09-15T08:11:18.401Z,54.60
2022-09-15T08:13:45.473Z,54.70
2022-09-15T08:16:11.985Z,54.80
2022-09-15T08:18:38.503Z,55.10
2022-09-15T08:21:04.971Z,55.10
2022-09-15T08:23:31.437Z,54.90
2022-09-15T08:25:57.915Z,54.90
2022-09-15T08:28:24.386Z,54.90
2022-09-15T08:30:50.938Z,54.90
2022-09-15T08:33:17.433Z,54.80
2022-09-15T08:35:43.897Z,54.80
2022-09-15T08:38:10.364Z,54.90
2022-09-15T08:40:36.939Z,54.80
2022-09-15T08:43:03.455Z,54.80
2022-09-15T08:45:29.959Z,54.60
2022-09-15T08:47:56.438Z,54.60
2022-09-15T08:50:22.955Z,54.70
2022-09-15T08:52:49.430Z,54.80
2022-09-15T08:55:15.900Z,54.80
2022-09-15T08:57:42.390Z,55.20
2022-09-15T09:00:08.865Z,55.00
2022-09-15T09:02:35.360Z,55.20
2022-09-15T09:05:01.858Z,55.10
2022-09-15T09:07:28.339Z,55.30
2022-09-15T09:09:54.802Z,55.10
2022-09-15T09:12:21.274Z,55.20
2022-09-15T09:14:47.744Z,55.10
2022-09-15T09:17:14.234Z,55.20
2022-09-15T09:19:40.718Z,55.10
2022-09-15T09:22:07.199Z,55.20
2022-09-15T09:24:33.692Z,55.20
2022-09-15T09:27:00.171Z,55.30
2022-09-15T09:29:26.654Z,55.50
2022-09-15T09:31:53.131Z,55.40
2022-09-15T09:34:19.626Z,55.60
2022-09-15T09:36:46.107Z,55.90
2022-09-15T09:39:12.596Z,56.30
2022-09-15T09:41:39.054Z,55.90
2022-09-15T09:44:05.530Z,55.90
2022-09-15T09:46:32.042Z,55.70
2022-09-15T09:48:58.560Z,55.50
2022-09-15T09:51:25.024Z,55.50
2022-09-15T09:53:51.560Z,55.00
2022-09-15T09:56:18.082Z,55.10
2022-09-15T09:58:44.560Z,55.40
2022-09-15T10:01:11.082Z,55.50
2022-09-15T10:03:37.617Z,55.20
2022-09-15T10:06:04.089Z,55.40
2022-09-15T10:08:30.553Z,55.20
2022-09-15T10:10:58.587Z,55.30
2022-09-15T10:13:25.062Z,55.20
2022-09-15T10:15:51.542Z,55.10
2022-09-15T10:18:18.021Z,54.70
2022-09-15T10:20:44.483Z,54.60
2022-09-15T10:23:10.949Z,54.60
2022-09-15T10:25:58.134Z,54.50
2022-09-15T10:28:23.872Z,54.60
2022-09-15T10:30:50.360Z,54.50
2022-09-15T10:33:16.840Z,54.40
2022-09-15T10:35:43.324Z,54.50
2022-09-15T10:38:09.779Z,54.70
2022-09-15T10:40:36.336Z,54.50
2022-09-15T10:43:04.002Z,54.40
2022-09-15T10:45:30.510Z,54.50
2022-09-15T10:47:56.988Z,54.60
2022-09-15T10:50:23.477Z,54.50
2022-09-15T10:52:49.950Z,54.60
2022-09-15T10:55:16.407Z,55.10
2022-09-15T10:57:42.872Z,54.60
2022-09-15T11:00:09.335Z,54.40
2022-09-15T11:02:35.850Z,54.30
2022-09-15T11:05:02.371Z,54.30
2022-09-15T11:07:28.839Z,54.20
2022-09-15T11:09:55.314Z,54.10
2022-09-15T11:12:23.894Z,54.00
2022-09-15T11:14:53.604Z,54.10
2022-09-15T11:17:20.080Z,54.00
2022-09-15T11:19:46.549Z,54.10
2022-09-15T11:22:13.028Z,54.10
2022-09-15T11:24:39.509Z,54.10
2022-09-15T11:27:05.964Z,54.00
2022-09-15T11:29:32.459Z,53.90
2022-09-15T11:31:59.005Z,54.00
2022-09-15T11:34:25.581Z,54.00
2022-09-15T11:36:52.043Z,54.00
2022-09-15T11:39:18.526Z,54.00
2022-09-15T11:41:45.009Z,54.00
2022-09-15T11:44:16.029Z,53.90
2022-09-15T11:46:43.363Z,54.10
2022-09-15T11:49:09.867Z,54.00
2022-09-15T11:51:36.326Z,54.20
2022-09-15T11:54:02.819Z,54.20
2022-09-15T11:56:29.285Z,54.30
2022-09-15T11:58:55.782Z,54.40
2022-09-15T12:01:22.255Z,54.40
2022-09-15T12:03:48.737Z,54.60
2022-09-15T12:06:15.208Z,54.60
2022-09-15T12:08:41.683Z,54.60
2022-09-15T12:11:08.162Z,54.70
2022-09-15T12:13:34.867Z,54.70
2022-09-15T12:16:01.364Z,54.70
2022-09-15T12:18:38.487Z,54.70
2022-09-15T12:21:07.374Z,55.50
2022-09-15T12:23:33.863Z,55.00
2022-09-15T12:26:00.332Z,55.20
2022-09-15T12:28:26.898Z,55.10
2022-09-15T12:30:53.483Z,55.30
2022-09-15T12:33:20.000Z,55.40
2022-09-15T12:35:46.481Z,55.30
2022-09-15T12:38:12.948Z,55.20
2022-09-15T12:40:39.486Z,55.20
2022-09-15T12:43:06.036Z,55.30
2022-09-15T12:45:32.509Z,55.30
2022-09-15T12:47:58.973Z,55.10
2022-09-15T12:50:25.444Z,54.90
2022-09-15T12:52:51.923Z,55.00
2022-09-15T12:55:18.418Z,54.80
2022-09-15T12:57:44.886Z,54.80
2022-09-15T13:00:11.377Z,54.90
2022-09-15T13:02:37.908Z,55.00
2022-09-15T13:05:04.406Z,55.10
2022-09-15T13:07:30.897Z,54.80
2022-09-15T13:09:57.428Z,54.80
2022-09-15T13:12:23.904Z,55.00
2022-09-15T13:14:50.397Z,55.20
2022-09-15T13:17:16.870Z,55.00
2022-09-15T13:19:43.328Z,55.20
2022-09-15T13:22:10.028Z,55.20
2022-09-15T13:24:36.541Z,55.30
2022-09-15T13:27:03.034Z,55.20
2022-09-15T13:29:29.504Z,55.10
2022-09-15T13:31:55.978Z,55.10
2022-09-15T13:39:55.415Z,55.10
2022-09-15T13:42:21.878Z,54.90
2022-09-15T13:44:48.354Z,54.80
2022-09-15T13:47:14.830Z,54.70
2022-09-15T13:49:41.287Z,54.60
2022-09-15T13:52:07.752Z,54.80
2022-09-15T13:54:34.223Z,54.60
2022-09-15T13:57:00.715Z,54.60
2022-09-15T13:59:27.533Z,54.60
2022-09-15T14:01:54.367Z,54.30
2022-09-15T14:04:20.897Z,54.50
2022-09-15T14:06:47.383Z,54.40
2022-09-15T14:09:13.859Z,54.60
2022-09-15T14:11:40.339Z,54.30
2022-09-15T14:14:06.809Z,54.50
2022-09-15T14:16:33.241Z,55.20
2022-09-15T14:18:59.746Z,54.40
2022-09-15T14:21:26.236Z,54.30
2022-09-15T14:23:52.786Z,54.50
2022-09-15T14:26:19.387Z,54.40
2022-09-15T14:28:45.962Z,54.20
2022-09-15T14:31:12.454Z,54.20
2022-09-15T14:33:38.919Z,54.20
2022-09-15T14:36:05.401Z,54.10
2022-09-15T14:38:31.870Z,54.00
2022-09-15T14:40:58.335Z,54.30
2022-09-15T14:43:24.813Z,54.50
2022-09-15T14:45:54.682Z,54.30
2022-09-15T14:48:25.059Z,54.30
2022-09-15T14:50:51.537Z,54.30
2022-09-15T14:53:17.996Z,54.20
2022-09-15T14:55:44.486Z,54.40
2022-09-15T14:58:10.955Z,54.40
2022-09-15T15:00:37.461Z,54.40
2022-09-15T15:03:03.974Z,54.20
2022-09-15T15:05:30.495Z,54.40
2022-09-15T15:07:56.959Z,54.30
2022-09-15T15:10:23.455Z,54.10
2022-09-15T15:12:49.931Z,54.00
2022-09-15T15:15:16.406Z,53.90
2022-09-15T15:17:42.898Z,53.90
2022-09-15T15:20:09.364Z,53.80
2022-09-15T15:22:35.845Z,53.90
2022-09-15T15:25:02.321Z,53.90
2022-09-15T15:27:28.808Z,53.70
2022-09-15T15:29:55.281Z,53.70
2022-09-15T15:32:21.756Z,53.60
2022-09-15T15:34:48.233Z,53.60
2022-09-15T15:37:14.719Z,53.80
2022-09-15T15:39:41.182Z,53.90
2022-09-15T15:42:07.643Z,53.90
2022-09-15T15:44:34.119Z,53.90
2022-09-15T15:47:00.579Z,54.00
2022-09-15T15:49:27.059Z,53.70
2022-09-15T15:51:53.537Z,53.80
2022-09-15T15:54:19.998Z,53.90
2022-09-15T15:56:46.485Z,54.10
2022-09-15T15:59:12.964Z,53.90
2022-09-15T16:01:39.495Z,53.90
2022-09-15T16:04:05.991Z,53.70
2022-09-15T16:06:32.453Z,53.70
2022-09-15T16:08:58.935Z,53.60
2022-09-15T16:11:25.440Z,53.60
2022-09-15T16:13:51.991Z,53.70
2022-09-15T16:16:18.628Z,53.60
2022-09-15T16:18:45.153Z,53.60
2022-09-15T16:21:11.640Z,53.50
2022-09-15T16:23:38.116Z,53.40
2022-09-15T16:26:04.592Z,53.40
2022-09-15T16:28:31.069Z,53.60
2022-09-15T16:30:57.552Z,53.50
2022-09-15T16:33:24.034Z,53.50
2022-09-15T16:35:50.517Z,53.50
2022-09-15T16:38:16.980Z,53.80
2022-09-15T16:40:43.477Z,53.70
2022-09-15T16:43:09.936Z,53.60
2022-09-15T16:45:39.789Z,53.70
2022-09-15T16:48:07.538Z,54.00
2022-09-15T16:50:34.040Z,54.20
2022-09-15T16:53:00.501Z,54.30
2022-09-15T16:55:26.987Z,54.50
2022-09-15T16:57:53.473Z,54.60
2022-09-15T17:00:19.950Z,54.60
2022-09-15T17:02:46.433Z,54.70
2022-09-15T17:05:12.915Z,54.70
2022-09-15T17:07:39.419Z,54.60
2022-09-15T17:10:05.885Z,54.60
2022-09-15T17:12:32.375Z,54.60
2022-09-15T17:14:58.831Z,54.40
2022-09-15T17:17:25.310Z,54.50
2022-09-15T17:19:51.770Z,54.60
2022-09-15T17:22:18.236Z,54.30
2022-09-15T17:24:44.710Z,54.20
2022-09-15T17:27:11.193Z,54.30
2022-09-15T17:29:37.671Z,54.20
2022-09-15T17:32:04.168Z,54.20
2022-09-15T17:34:30.642Z,54.30
2022-09-15T17:36:57.122Z,54.40
2022-09-15T17:39:23.603Z,54.30
2022-09-15T17:41:50.100Z,54.20
2022-09-15T17:44:16.589Z,54.10
2022-09-15T17:46:43.134Z,54.00
2022-09-15T17:49:09.696Z,54.00
2022-09-15T17:51:36.172Z,54.10
2022-09-15T17:54:02.656Z,54.00
2022-09-15T17:56:29.116Z,53.90
2022-09-15T17:58:55.589Z,53.70
2022-09-15T18:01:22.098Z,54.00
2022-09-15T18:03:48.587Z,54.10
2022-09-15T18:06:15.072Z,54.00
2022-09-15T18:08:41.532Z,54.00
2022-09-15T18:11:08.009Z,53.60
2022-09-15T18:13:34.470Z,53.90
2022-09-15T18:16:01.049Z,53.80
2022-09-15T18:18:27.526Z,53.80
2022-09-15T18:20:54.027Z,53.60
2022-09-15T18:23:20.510Z,53.60
2022-09-15T18:25:47.021Z,53.60
2022-09-15T18:28:13.493Z,53.70
2022-09-15T18:30:40.040Z,53.60
2022-09-15T18:33:06.576Z,53.60
2022-09-15T18:35:33.063Z,53.70
2022-09-15T18:37:59.531Z,53.60
2022-09-15T18:40:26.049Z,53.20
2022-09-15T18:42:52.532Z,53.20
2022-09-15T18:45:19.007Z,53.10
2022-09-15T18:47:45.494Z,53.20
2022-09-15T18:50:17.144Z,53.30
2022-09-15T18:52:43.632Z,53.00
2022-09-15T18:55:10.117Z,53.00
2022-09-15T18:57:36.599Z,53.10
2022-09-15T19:00:03.059Z,53.20
2022-09-15T19:02:29.592Z,53.20
2022-09-15T19:04:56.095Z,53.20
2022-09-15T19:07:27.643Z,52.90
2022-09-15T19:09:56.648Z,52.90
2022-09-15T19:12:23.331Z,52.80
2022-09-15T19:14:49.810Z,52.80
2022-09-15T19:17:16.318Z,52.90
2022-09-15T19:19:42.799Z,52.80
2022-09-15T19:22:09.288Z,52.90
2022-09-15T19:24:35.761Z,52.80
2022-09-15T19:27:02.247Z,52.90
2022-09-15T19:29:28.716Z,52.70
2022-09-15T19:31:55.223Z,52.90
2022-09-15T19:34:21.702Z,52.80
2022-09-15T19:36:48.192Z,52.70
2022-09-15T19:39:14.669Z,52.70
2022-09-15T19:41:41.167Z,52.70
2022-09-15T19:44:10.662Z,52.60
2022-09-15T19:46:37.442Z,52.50
2022-09-15T19:49:03.904Z,52.60
2022-09-15T19:51:30.391Z,52.60
2022-09-15T19:53:56.873Z,52.80
2022-09-15T19:56:23.375Z,52.70
2022-09-15T19:58:49.835Z,52.50
2022-09-15T20:01:16.357Z,52.60
2022-09-15T20:03:42.868Z,52.80
2022-09-15T20:06:09.348Z,52.80
2022-09-15T20:08:35.825Z,52.90
2022-09-15T20:11:02.312Z,52.60
2022-09-15T20:13:28.806Z,52.70
2022-09-15T20:15:55.287Z,52.50
2022-09-15T20:18:21.762Z,52.50
2022-09-15T20:20:48.228Z,52.60
2022-09-15T20:23:14.697Z,52.60
2022-09-15T20:25:41.172Z,52.70
2022-09-15T20:28:07.643Z,53.30
2022-09-15T20:30:34.130Z,52.60
2022-09-15T20:33:00.644Z,52.60
2022-09-15T20:35:27.121Z,52.70
2022-09-15T20:37:53.612Z,52.60
2022-09-15T20:40:20.126Z,52.70
2022-09-15T20:42:46.657Z,52.70
2022-09-15T20:45:13.138Z,52.60
2022-09-15T20:47:39.623Z,52.50
2022-09-15T20:50:06.109Z,52.40
2022-09-15T20:52:37.435Z,52.50
2022-09-15T20:55:04.637Z,52.30
2022-09-15T20:57:31.115Z,52.40
2022-09-15T20:59:57.589Z,52.50
2022-09-15T21:02:24.237Z,52.70
2022-09-15T21:04:50.757Z,52.60
2022-09-15T21:07:17.249Z,52.60
2022-09-15T21:09:43.711Z,52.60
2022-09-15T21:12:10.191Z,52.60
2022-09-15T21:14:36.665Z,52.50
2022-09-15T21:17:03.146Z,52.50
2022-09-15T21:19:29.617Z,52.40
2022-09-15T21:21:56.118Z,52.40
2022-09-15T21:24:22.580Z,52.40
2022-09-15T21:26:49.074Z,52.50
2022-09-15T21:29:15.540Z,52.40
2022-09-15T21:31:42.080Z,52.40
2022-09-15T21:34:08.583Z,52.40
2022-09-15T21:36:35.071Z,52.30
2022-09-15T21:39:01.557Z,52.40
2022-09-15T21:41:28.062Z,52.30
2022-09-15T21:43:54.618Z,52.20
2022-09-15T21:46:21.225Z,52.10
2022-09-15T21:48:47.691Z,52.10
2022-09-15T21:51:14.158Z,52.00
2022-09-15T21:53:40.638Z,52.20
2022-09-15T21:56:07.109Z,52.10
2022-09-15T21:58:33.573Z,52.00
2022-09-15T22:01:00.161Z,52.00
2022-09-15T22:03:26.625Z,52.00
2022-09-15T22:05:53.094Z,51.90
2022-09-15T22:08:19.572Z,51.90
2022-09-15T22:10:46.066Z,51.90
2022-09-15T22:13:12.541Z,52.00
2022-09-15T22:15:39.030Z,52.00
2022-09-15T22:18:05.515Z,52.00
2022-09-15T22:20:31.980Z,52.00
2022-09-15T22:22:58.453Z,52.20
2022-09-15T22:25:24.928Z,52.30
2022-09-15T22:27:51.414Z,52.40
2022-09-15T22:30:17.881Z,52.20
2022-09-15T22:32:44.357Z,51.90
2022-09-15T22:35:10.847Z,51.90
2022-09-15T22:37:37.330Z,51.90
2022-09-15T22:40:03.829Z,51.70
2022-09-15T22:42:30.312Z,51.40
2022-09-15T22:44:56.786Z,51.40
2022-09-15T22:47:23.273Z,51.70
2022-09-15T22:49:49.744Z,52.00
2022-09-15T22:52:16.226Z,52.20
2022-09-15T22:54:42.701Z,52.30
2022-09-15T22:57:09.204Z,52.30
2022-09-15T22:59:35.685Z,52.40
2022-09-15T23:02:02.223Z,52.80
2022-09-15T23:04:28.730Z,52.20
2022-09-15T23:06:55.231Z,52.20
2022-09-15T23:09:21.715Z,52.10
2022-09-15T23:11:48.215Z,52.20
2022-09-15T23:14:14.696Z,52.20
2022-09-15T23:16:41.222Z,52.20
2022-09-15T23:19:07.800Z,52.20
2022-09-15T23:21:34.289Z,52.20
2022-09-15T23:24:00.766Z,52.20
2022-09-15T23:26:27.262Z,52.10
2022-09-15T23:28:53.736Z,52.20
2022-09-15T23:31:20.320Z,52.10
2022-09-15T23:33:46.839Z,52.00
2022-09-15T23:36:13.343Z,52.00
2022-09-15T23:38:39.827Z,51.90
2022-09-15T23:41:06.413Z,52.00
2022-09-15T23:43:32.888Z,52.10
2022-09-15T23:45:59.369Z,52.00
2022-09-15T23:48:25.861Z,52.10
2022-09-15T23:50:52.380Z,52.10
2022-09-15T23:53:18.865Z,52.20
2022-09-15T23:55:45.352Z,52.10
2022-09-15T23:58:11.839Z,52.10
